METAR Data
IDs: Format: Raw Decoded Include TAF

Data at: 1514 UTC 16 Feb 2019

METAR for:KIND (Indianapolis Intl, IN, US)
Text:KIND 161454Z 07009KT 10SM SCT019 M03/M09 A3007 RMK AO2 SLP192 T10331089 50008
Temperature: -3.3°C ( 26°F)
Dewpoint: -8.9°C ( 16°F) [RH = 65%]
Pressure (altimeter):30.07 inches Hg (1018.4 mb) [Sea level pressure: 1019.2 mb]
Winds:from the ENE (70 degrees) at 10 MPH (9 knots; 4.6 m/s)
Visibility:10 or more sm (16+ km)
Ceiling:at least 12,000 feet AGL
Clouds: scattered clouds at 1900 feet AGL